Malaysia Virtual Airlines Airport Information Service

Penang / Bayan Lepas

ICAO: WMKP Country: Malaysia
Latitude: 5.29714 Longitude: 100.277
Latest Arrival : MH9719 (VHHH-WMKP) Latest Departure : MH1145 (WMKP-WMKK)


WX CaptureLIVE
Data provided by noaa.gov | Fetched at 16:26:42

METAR : WMKP 261600Z 00000KT 7000 FEW025 29/26 Q1010 NOSIG

TAF : WMKP 261100Z 2612/2712 00000KT 8000 FEW025 BECMG 2703/2705 22008KT FEW020


Runway Data for WMKP
Data provided by openaviationdata.com

Runway ID Mag Var Hdg Length Elevation Surface ILS Freq ILS Id ILS Slope
4 0 42° 10954 ft 11 ft Asphalt 109.9 IPG 3
22 0 222° 10954 ft 11 ft Asphalt -- -- --

Penang / Bayan Lepas, Malaysia
Use only for reference purposes



Not for navigational purposes.